Shelter Island Heights, NY (11965)

5:45 PM EDT on March 26, 2017 (GMT -0400)
KNYSHELT2 | | Change Station

Elev 73 ft 41.07 °N, 72.36 °W | Updated 12 minutes ago

Overcast
Overcast
38.5 °F
Feels Like 31 °F
N
12.0
Wind Variable Wind from ESE

Today
High -- | Low -- °F
--% Chance of Precip.
Yesterday
High -- | Low -- °F
Precip. -- in
Pressure 30.41 in
Visibility 10.0 miles
Clouds Scattered Clouds 1300 ft
Overcast 3000 ft
Windchill 31 °F
Dew Point 36 °F
Humidity 89%
Rainfall 0.05 in
Snow Depth Not available.
6:42 AM 7:08 PM
Waning Crescent, 2% visible
METAR KHTO 262135Z AUTO 09012G16KT 10SM SCT013 OVC030 04/02 A3041 RMK AO2 T00350015
Pressure 30.41 in
Visibility 10.0 miles
Clouds Scattered Clouds 1300 ft
Overcast 3000 ft
Windchill 31 °F
Dew Point 36 °F
Humidity 89%
Rainfall 0.05 in
Snow Depth Not available.
6:42 AM 7:08 PM
Waning Crescent, 2% visible
METAR KHTO 262135Z AUTO 09012G16KT 10SM SCT013 OVC030 04/02 A3041 RMK AO2 T00350015

Get Severe Weather Alerts

Thanks for signing up!

Be on the lookout for a verification email in your inbox.

You'll start receiving the daily forecast at 8 AM.

×

10-Day Weather Forecast

Almanac

Astronomy

Mar. 26, 2017 Rise Set
Actual Time
Civil Twilight
Nautical Twilight
Astronomical Twilight
Moon
Length of Visible Light
Length of Day
Tomorrow will be .
, % of the Moon is Illuminated

Today's Extremes

State Highs State Lows

Community

WunderPhotos

Upload Photos

1,962,540 photos uploaded!

WunderBlog® & News

Nearby

Air Quality

  Air Quality AQ Index Pollutant
Not available.

Snow Depth

Station Depth Elevation

Earthquake Activity

City Distance Mag. Time & Date
Minimum magnitude displayed is 2.5.

Earthquake Activity

City Distance Mag. Time & Date
Minimum magnitude displayed is 2.5.

Coastal Water Temperatures

Place Temperature

Stations

Nearby Weather Stations

Station Location Temp. Windchill Dew Point Humidity Wind Precip. Elev Updated Type
                   

Watches & Warnings

There are currently no watches in effect.